Aegean Viii — SXKO — position and weather

sailwx.info

Track history (hours):
 
Tides and Currents Weather Stations Pressure Air Temp Water Temp Dewpoint Dewpoint Depression Visibility Wind Speed Wind Dir Waves Ship Positions

Aegean Viii

Last reported at 2017-Aug-17 06:01 UTC. Time now 2017-Aug-17 06:09 UTC.
Position N 38°02' E 023°31'.

Length 12 m; draft 5.2 m.

Type: Tanker. MMSI: 240732000.

Date/timePositionNaut miles runAvg speedWind from/ knotsBaromVisibWave heightAir tempDewpointWater temp
2017-Aug-17 06:01N 38°02' E 023°31'0 0.0
2017-Aug-17 05:31N 38°02' E 023°31'0 0.0
2017-Aug-17 05:01N 38°02' E 023°31'1 1.1
2017-Aug-17 04:29N 38°02' E 023°31'1 1.1
2017-Aug-17 04:00N 38°02' E 023°32'0 0.0
2017-Aug-17 03:30N 38°02' E 023°32'0 0.0
2017-Aug-17 03:00N 38°02' E 023°32'0 0.0
2017-Aug-16 11:22N 38°02' E 023°32'0 0.0
2017-Aug-16 11:00N 38°02' E 023°32'0 0.0
2017-Aug-16 10:29N 38°02' E 023°32'0 0.0
2017-Aug-16 10:00N 38°02' E 023°32'0 0.0
2017-Aug-16 09:30N 38°02' E 023°32'0 0.0
2017-Aug-16 09:00N 38°02' E 023°32'0 0.0
2017-Aug-16 08:31N 38°02' E 023°32'0 0.0
2017-Aug-16 08:01N 38°02' E 023°32'0 0.0
2017-Aug-16 07:30N 38°02' E 023°32'0 0.0
2017-Aug-16 07:01N 38°02' E 023°32'0 0.0
2017-Aug-16 06:30N 38°02' E 023°32'0 0.0
2017-Aug-16 06:00N 38°02' E 023°32'0 0.0
2017-Aug-16 05:30N 38°02' E 023°32'0 0.0
2017-Aug-16 05:00N 38°02' E 023°32'0 0.0
2017-Aug-15 09:17N 38°02' E 023°32'0 0.0
2017-Aug-15 09:00N 38°02' E 023°32'1 1.3
2017-Aug-15 08:30N 38°02' E 023°32'4 8.7
2017-Aug-15 08:00N 37°57' E 023°33'4 7.8
2017-Aug-15 07:30N 37°57' E 023°38'0 0.1
2017-Aug-15 07:00N 37°57' E 023°38'0 0.0
2017-Aug-15 06:30N 37°57' E 023°38'0 0.0
2017-Aug-15 06:00N 37°57' E 023°38'0 0.0
2017-Aug-15 05:30N 37°57' E 023°38'0 0.2
2017-Aug-15 05:00N 37°57' E 023°38'3 6.1
2017-Aug-15 04:30N 37°57' E 023°35'4 7.5
2017-Aug-15 04:01N 38°00' E 023°33'2 3.9
2017-Aug-15 03:30N 38°02' E 023°32'0 0.0
2017-Aug-15 03:00N 38°02' E 023°32'0 0.0
2017-Aug-14 14:07N 38°02' E 023°32'0 0.0
2017-Aug-14 14:01N 38°02' E 023°32'0 0.0
2017-Aug-14 13:30N 38°02' E 023°32'1 1.3
2017-Aug-14 13:00N 38°02' E 023°32'4 8.7
2017-Aug-14 12:30N 37°57' E 023°33'3 6.9
2017-Aug-14 12:00N 37°56' E 023°38'0 0.2
2017-Aug-14 11:31N 37°56' E 023°37'0 0.0
2017-Aug-14 11:00N 37°56' E 023°37'0 0.0
2017-Aug-14 10:30N 37°56' E 023°37'0 0.0
2017-Aug-14 10:00N 37°56' E 023°37'0 0.6
2017-Aug-14 09:30N 37°56' E 023°38'0 0.4
2017-Aug-14 09:00N 37°56' E 023°38'0 0.0
2017-Aug-14 08:30N 37°56' E 023°38'0 0.0
2017-Aug-14 08:00N 37°56' E 023°38'0 0.2
2017-Aug-14 07:30N 37°56' E 023°38'2 3.1
2017-Aug-14 07:00N 37°57' E 023°36'4 7.1
2017-Aug-14 06:29N 37°59' E 023°33'3 6.7
2017-Aug-14 06:00N 38°02' E 023°36'0 0.2
2017-Aug-14 05:29N 38°02' E 023°36'0 0.0
2017-Aug-14 05:00N 38°02' E 023°36'0 0.0
2017-Aug-14 04:31N 38°02' E 023°36'0 0.0
2017-Aug-14 04:01N 38°02' E 023°36'0 0.0
2017-Aug-14 03:30N 38°02' E 023°36'0 0.0
2017-Aug-14 02:59N 38°02' E 023°36'0 0.0
2017-Aug-14 02:30N 38°02' E 023°36'0 0.0
2017-Aug-14 02:00N 38°02' E 023°36'0 0.0
2017-Aug-14 01:30N 38°02' E 023°36'1 1.0
2017-Aug-14 01:00N 38°01' E 023°35'0 0.1
2017-Aug-14 00:31N 38°01' E 023°35'0 0.0
2017-Aug-14 00:01N 38°01' E 023°35'0 0.0
2017-Aug-13 23:30N 38°01' E 023°35'0 0.0
2017-Aug-13 23:00N 38°01' E 023°35'0 0.0
2017-Aug-13 22:31N 38°01' E 023°35'0 0.2
2017-Aug-13 22:00N 38°01' E 023°35'3 6.5
2017-Aug-13 21:31N 38°02' E 023°31'0 0.7
2017-Aug-13 21:00N 38°02' E 023°31'0 0.0
2017-Aug-13 20:30N 38°02' E 023°31'0 0.0
2017-Aug-13 20:00N 38°02' E 023°31'0 0.0
2017-Aug-13 19:30N 38°02' E 023°31'0 0.0
2017-Aug-13 19:00N 38°02' E 023°31'0 0.0
2017-Aug-13 18:30N 38°02' E 023°31'0 0.0
2017-Aug-13 18:00N 38°02' E 023°31'0 0.0
2017-Aug-13 17:30N 38°02' E 023°31'0 0.0
2017-Aug-13 17:00N 38°02' E 023°31'0 0.0
2017-Aug-13 16:29N 38°02' E 023°31'1 1.6
2017-Aug-13 16:00N 38°02' E 023°31'0 0.1
2017-Aug-13 15:30N 38°02' E 023°31'3 6.0
2017-Aug-13 15:00N 37°59' E 023°33'4 7.1
2017-Aug-13 14:30N 37°56' E 023°35'1 3.0
2017-Aug-13 14:00N 37°54' E 023°34'0 0.0
2017-Aug-13 13:31N 37°54' E 023°34'0 0.0
2017-Aug-13 13:00N 37°54' E 023°34'0 0.0
2017-Aug-13 12:30N 37°54' E 023°34'0 0.8
2017-Aug-13 11:59N 37°55' E 023°34'3 6.5
2017-Aug-13 11:30N 37°57' E 023°36'0 0.2
2017-Aug-13 11:00N 37°58' E 023°36'0 0.1
2017-Aug-13 10:30N 37°58' E 023°36'0 0.0
2017-Aug-13 10:00N 37°58' E 023°36'0 0.0
2017-Aug-13 09:30N 37°58' E 023°36'0 0.0
2017-Aug-13 09:00N 37°58' E 023°36'0 0.0
2017-Aug-13 08:30N 37°58' E 023°36'1 2.4
2017-Aug-13 08:01N 37°57' E 023°35'0 1.0
2017-Aug-13 07:30N 37°57' E 023°34'0 0.0
2017-Aug-13 07:00N 37°57' E 023°34'0 0.0
2017-Aug-13 06:30N 37°57' E 023°34'0 0.1
2017-Aug-13 06:00N 37°57' E 023°34'0 0.0
2017-Aug-13 05:30N 37°57' E 023°34'0 0.3
2017-Aug-13 05:00N 37°57' E 023°34'1 3.0
2017-Aug-13 04:30N 37°58' E 023°33'4 7.3
2017-Aug-13 04:00N 38°02' E 023°32'1 1.4
2017-Aug-13 03:30N 38°02' E 023°32'0 0.0
2017-Aug-13 03:00N 38°02' E 023°32'0 0.0
2017-Aug-13 02:30N 38°02' E 023°32'0 0.0
2017-Aug-12 16:34N 38°02' E 023°32'0 0.1
2017-Aug-12 16:30N 38°02' E 023°32'0 0.1
2017-Aug-12 16:00N 38°02' E 023°32'4 7.5
2017-Aug-12 15:30N 37°59' E 023°33'4 8.3
2017-Aug-12 15:00N 37°56' E 023°37'1 1.2
2017-Aug-12 14:30N 37°56' E 023°38'0 0.0
2017-Aug-12 14:00N 37°56' E 023°38'0 0.0
2017-Aug-12 13:30N 37°56' E 023°38'0 0.0
2017-Aug-12 13:00N 37°56' E 023°38'0 0.0
2017-Aug-12 12:30N 37°56' E 023°38'0 0.0
2017-Aug-12 12:01N 37°56' E 023°38'0 0.0
2017-Aug-12 11:30N 37°56' E 023°38'0 0.0
2017-Aug-12 11:00N 37°56' E 023°38'0 0.0
2017-Aug-12 10:30N 37°56' E 023°38'0 0.0
2017-Aug-12 10:00N 37°56' E 023°38'0 0.0
2017-Aug-12 09:29N 37°56' E 023°38'0 0.0
2017-Aug-12 08:59N 37°56' E 023°38'1 1.1
2017-Aug-12 08:30N 37°56' E 023°37'4 7.1
2017-Aug-12 08:00N 37°58' E 023°33'4 8.8
2017-Aug-12 07:30N 38°02' E 023°32'1 1.0
2017-Aug-12 07:00N 38°02' E 023°32'0 0.0
2017-Aug-12 06:30N 38°02' E 023°32'0 0.0
2017-Aug-12 06:00N 38°02' E 023°32'0 0.0
2017-Aug-12 05:29N 38°02' E 023°32'0 0.0
2017-Aug-12 05:00N 38°02' E 023°32'0 0.0
2017-Aug-12 04:29N 38°02' E 023°32'0 0.0
2017-Aug-12 04:00N 38°02' E 023°32'0 0.0
2017-Aug-12 03:30N 38°02' E 023°32'0 0.0
2017-Aug-12 02:59N 38°02' E 023°32'0 0.0
2017-Aug-11 12:36N 38°02' E 023°32'0 0.1
2017-Aug-11 12:30N 38°02' E 023°32'0 0.0
2017-Aug-11 12:01N 38°02' E 023°32'0 0.0
2017-Aug-11 11:29N 38°02' E 023°32'0 0.0
2017-Aug-11 11:00N 38°02' E 023°32'0 0.1
2017-Aug-11 10:31N 38°02' E 023°32'0 0.1
2017-Aug-11 10:00N 38°02' E 023°32'0 0.0
2017-Aug-11 09:30N 38°02' E 023°32'0 0.0
2017-Aug-11 09:00N 38°02' E 023°32'0 0.0
2017-Aug-11 08:30N 38°02' E 023°32'0 0.0
2017-Aug-11 08:01N 38°02' E 023°32'0 0.0
2017-Aug-11 07:31N 38°02' E 023°32'0 0.0
2017-Aug-11 07:00N 38°02' E 023°32'0 0.0
2017-Aug-11 06:30N 38°02' E 023°32'0 0.0
2017-Aug-11 06:00N 38°02' E 023°32'0 0.0
2017-Aug-11 05:31N 38°02' E 023°32'0 0.0
2017-Aug-11 05:00N 38°02' E 023°32'0 0.0
2017-Aug-11 04:30N 38°02' E 023°32'0 0.0
2017-Aug-10 13:29N 38°02' E 023°32'0 0.1
2017-Aug-10 13:00N 38°02' E 023°32'3 5.1
2017-Aug-10 12:30N 38°02' E 023°35'0 0.7
2017-Aug-10 12:00N 38°02' E 023°36'0 0.0
2017-Aug-10 11:31N 38°02' E 023°36'0 0.0
2017-Aug-10 11:00N 38°02' E 023°36'0 0.0
2017-Aug-10 10:30N 38°02' E 023°36'0 0.0
2017-Aug-10 10:01N 38°02' E 023°36'0 0.0
2017-Aug-10 09:30N 38°02' E 023°36'0 0.0
2017-Aug-10 09:01N 38°02' E 023°36'0 0.0
2017-Aug-10 08:30N 38°02' E 023°36'0 0.0
2017-Aug-10 08:00N 38°02' E 023°36'0 0.0
2017-Aug-10 07:30N 38°02' E 023°36'1 1.1
2017-Aug-10 07:00N 38°02' E 023°35'0 0.0
2017-Aug-10 06:30N 38°02' E 023°35'0 0.0
2017-Aug-10 06:00N 38°02' E 023°35'0 0.0
2017-Aug-10 05:30N 38°02' E 023°35'0 0.0
2017-Aug-10 05:00N 38°02' E 023°35'0 0.1
2017-Aug-10 04:30N 38°02' E 023°35'0 0.0
2017-Aug-10 04:00N 38°02' E 023°35'0 0.5
2017-Aug-10 03:30N 38°02' E 023°35'2 4.5
2017-Aug-10 03:00N 38°02' E 023°32'0 0.0
2017-Aug-10 02:31N 38°02' E 023°32'0 0.0
2017-Aug-09 16:40N 38°02' E 023°32'0 0.0
2017-Aug-09 16:30N 38°02' E 023°32'0 0.0
2017-Aug-09 15:59N 38°02' E 023°32'0 0.0
2017-Aug-09 15:30N 38°02' E 023°32'1 2.5
2017-Aug-09 15:00N 38°01' E 023°33'0 0.1
2017-Aug-09 14:30N 38°01' E 023°33'0 0.1
2017-Aug-09 14:00N 38°01' E 023°33'0 0.0
2017-Aug-09 13:30N 38°01' E 023°33'0 0.1
2017-Aug-09 13:00N 38°01' E 023°33'0 0.0
2017-Aug-09 12:30N 38°01' E 023°33'0 0.0
2017-Aug-09 12:00N 38°01' E 023°33'0 0.6
2017-Aug-09 11:31N 38°01' E 023°33'2 3.1
2017-Aug-09 11:00N 38°02' E 023°32'0 0.0
2017-Aug-09 10:30N 38°02' E 023°32'0 0.0
2017-Aug-09 09:59N 38°02' E 023°32'0 0.0
2017-Aug-09 09:29N 38°02' E 023°32'0 0.0
2017-Aug-09 09:00N 38°02' E 023°32'0 0.0
2017-Aug-09 08:31N 38°02' E 023°32'0 0.0
2017-Aug-09 08:00N 38°02' E 023°32'0 0.0
2017-Aug-09 07:30N 38°02' E 023°32'0 0.0
2017-Aug-09 07:01N 38°02' E 023°32'0 0.0
2017-Aug-09 06:29N 38°02' E 023°32'0 0.0
2017-Aug-09 06:00N 38°02' E 023°32'0 0.0
2017-Aug-09 05:30N 38°02' E 023°32'0 0.0
2017-Aug-09 05:00N 38°02' E 023°32'0 0.0
2017-Aug-08 17:02N 38°02' E 023°32'0 0.0
2017-Aug-08 17:00N 38°02' E 023°32'0 0.4
2017-Aug-08 16:30N 38°02' E 023°32'3 5.6
2017-Aug-08 16:00N 38°02' E 023°36'0 0.1
2017-Aug-08 15:30N 38°02' E 023°36'0 0.0
2017-Aug-08 15:00N 38°02' E 023°36'0 0.0
2017-Aug-08 14:30N 38°02' E 023°36'0 0.0
2017-Aug-08 14:00N 38°02' E 023°36'0 0.0
2017-Aug-08 13:30N 38°02' E 023°36'2 3.9
2017-Aug-08 13:01N 38°01' E 023°34'3 6.7
2017-Aug-08 12:31N 37°57' E 023°34'3 5.1
2017-Aug-08 12:00N 37°56' E 023°37'1 1.1
2017-Aug-08 11:30N 37°56' E 023°38'0 0.0
2017-Aug-08 11:00N 37°56' E 023°38'0 0.0
2017-Aug-08 10:30N 37°56' E 023°38'0 0.0
2017-Aug-08 10:00N 37°56' E 023°38'0 0.0
2017-Aug-08 09:29N 37°56' E 023°38'1 1.4
2017-Aug-08 09:01N 37°56' E 023°37'2 3.1
2017-Aug-08 08:30N 37°57' E 023°35'4 8.3
2017-Aug-08 08:00N 38°00' E 023°33'2 3.7
2017-Aug-08 07:30N 38°02' E 023°32'0 0.0
2017-Aug-08 07:01N 38°02' E 023°32'0 0.0
2017-Aug-08 06:30N 38°02' E 023°32'0 0.0
2017-Aug-08 06:00N 38°02' E 023°32'0 0.0
2017-Aug-08 05:30N 38°02' E 023°32'0 0.0
2017-Aug-08 05:00N 38°02' E 023°32'0 0.0
2017-Aug-07 15:15N 38°02' E 023°32'0 0.0
2017-Aug-07 15:01N 38°02' E 023°32'0 0.0
2017-Aug-07 14:30N 38°02' E 023°32'0 0.0
2017-Aug-07 14:00N 38°02' E 023°32'2 3.3
2017-Aug-07 13:30N 38°01' E 023°32'4 7.9
2017-Aug-07 13:00N 37°57' E 023°35'0 0.7
2017-Aug-07 12:30N 37°57' E 023°35'0 0.0
2017-Aug-07 12:01N 37°57' E 023°35'0 0.0
2017-Aug-07 11:30N 37°57' E 023°35'0 0.0
2017-Aug-07 11:00N 37°57' E 023°35'0 0.0
2017-Aug-07 10:30N 37°57' E 023°35'0 0.0
2017-Aug-07 10:00N 37°57' E 023°35'0 0.0
2017-Aug-07 09:30N 37°57' E 023°35'0 0.0
2017-Aug-07 09:00N 37°57' E 023°35'0 0.0
2017-Aug-07 08:30N 37°57' E 023°35'0 0.0
2017-Aug-07 08:00N 37°57' E 023°35'1 1.0
2017-Aug-07 07:31N 37°57' E 023°36'2 2.9
2017-Aug-07 06:48N 37°56' E 023°38'0 0.0
2017-Aug-07 06:30N 37°56' E 023°38'  
Track history (hours):
 
Tides and Currents Weather Stations Pressure Air Temp Water Temp Dewpoint Dewpoint Depression Visibility Wind Speed Wind Dir Waves Ship Positions

Aegean Viii

Last reported at 2017-Aug-17 06:01 UTC. Time now 2017-Aug-17 06:09 UTC.
Position N 38°02' E 023°31'.

Length 12 m; draft 5.2 m.

Type: Tanker. MMSI: 240732000.

Date/timePositionNaut miles runAvg speedWind from/ knotsBaromVisibWave heightAir tempDewpointWater temp
2017-Aug-17 06:01N 38°02' E 023°31'0 0.0
2017-Aug-17 05:31N 38°02' E 023°31'0 0.0
2017-Aug-17 05:01N 38°02' E 023°31'1 1.1
2017-Aug-17 04:29N 38°02' E 023°31'1 1.1
2017-Aug-17 04:00N 38°02' E 023°32'0 0.0
2017-Aug-17 03:30N 38°02' E 023°32'0 0.0
2017-Aug-17 03:00N 38°02' E 023°32'0 0.0
2017-Aug-16 11:22N 38°02' E 023°32'0 0.0
2017-Aug-16 11:00N 38°02' E 023°32'0 0.0
2017-Aug-16 10:29N 38°02' E 023°32'0 0.0
2017-Aug-16 10:00N 38°02' E 023°32'0 0.0
2017-Aug-16 09:30N 38°02' E 023°32'0 0.0
2017-Aug-16 09:00N 38°02' E 023°32'0 0.0
2017-Aug-16 08:31N 38°02' E 023°32'0 0.0
2017-Aug-16 08:01N 38°02' E 023°32'0 0.0
2017-Aug-16 07:30N 38°02' E 023°32'0 0.0
2017-Aug-16 07:01N 38°02' E 023°32'0 0.0
2017-Aug-16 06:30N 38°02' E 023°32'0 0.0
2017-Aug-16 06:00N 38°02' E 023°32'0 0.0
2017-Aug-16 05:30N 38°02' E 023°32'0 0.0
2017-Aug-16 05:00N 38°02' E 023°32'0 0.0
2017-Aug-15 09:17N 38°02' E 023°32'0 0.0
2017-Aug-15 09:00N 38°02' E 023°32'1 1.3
2017-Aug-15 08:30N 38°02' E 023°32'4 8.7
2017-Aug-15 08:00N 37°57' E 023°33'4 7.8
2017-Aug-15 07:30N 37°57' E 023°38'0 0.1
2017-Aug-15 07:00N 37°57' E 023°38'0 0.0
2017-Aug-15 06:30N 37°57' E 023°38'0 0.0
2017-Aug-15 06:00N 37°57' E 023°38'0 0.0
2017-Aug-15 05:30N 37°57' E 023°38'0 0.2
2017-Aug-15 05:00N 37°57' E 023°38'3 6.1
2017-Aug-15 04:30N 37°57' E 023°35'4 7.5
2017-Aug-15 04:01N 38°00' E 023°33'2 3.9
2017-Aug-15 03:30N 38°02' E 023°32'0 0.0
2017-Aug-15 03:00N 38°02' E 023°32'0 0.0
2017-Aug-14 14:07N 38°02' E 023°32'0 0.0
2017-Aug-14 14:01N 38°02' E 023°32'0 0.0
2017-Aug-14 13:30N 38°02' E 023°32'1 1.3
2017-Aug-14 13:00N 38°02' E 023°32'4 8.7
2017-Aug-14 12:30N 37°57' E 023°33'3 6.9
2017-Aug-14 12:00N 37°56' E 023°38'0 0.2
2017-Aug-14 11:31N 37°56' E 023°37'0 0.0
2017-Aug-14 11:00N 37°56' E 023°37'0 0.0
2017-Aug-14 10:30N 37°56' E 023°37'0 0.0
2017-Aug-14 10:00N 37°56' E 023°37'0 0.6
2017-Aug-14 09:30N 37°56' E 023°38'0 0.4
2017-Aug-14 09:00N 37°56' E 023°38'0 0.0
2017-Aug-14 08:30N 37°56' E 023°38'0 0.0
2017-Aug-14 08:00N 37°56' E 023°38'0 0.2
2017-Aug-14 07:30N 37°56' E 023°38'2 3.1
2017-Aug-14 07:00N 37°57' E 023°36'4 7.1
2017-Aug-14 06:29N 37°59' E 023°33'3 6.7
2017-Aug-14 06:00N 38°02' E 023°36'0 0.2
2017-Aug-14 05:29N 38°02' E 023°36'0 0.0
2017-Aug-14 05:00N 38°02' E 023°36'0 0.0
2017-Aug-14 04:31N 38°02' E 023°36'0 0.0
2017-Aug-14 04:01N 38°02' E 023°36'0 0.0
2017-Aug-14 03:30N 38°02' E 023°36'0 0.0
2017-Aug-14 02:59N 38°02' E 023°36'0 0.0
2017-Aug-14 02:30N 38°02' E 023°36'0 0.0
2017-Aug-14 02:00N 38°02' E 023°36'0 0.0
2017-Aug-14 01:30N 38°02' E 023°36'1 1.0
2017-Aug-14 01:00N 38°01' E 023°35'0 0.1
2017-Aug-14 00:31N 38°01' E 023°35'0 0.0
2017-Aug-14 00:01N 38°01' E 023°35'0 0.0
2017-Aug-13 23:30N 38°01' E 023°35'0 0.0
2017-Aug-13 23:00N 38°01' E 023°35'0 0.0
2017-Aug-13 22:31N 38°01' E 023°35'0 0.2
2017-Aug-13 22:00N 38°01' E 023°35'3 6.5
2017-Aug-13 21:31N 38°02' E 023°31'0 0.7
2017-Aug-13 21:00N 38°02' E 023°31'0 0.0
2017-Aug-13 20:30N 38°02' E 023°31'0 0.0
2017-Aug-13 20:00N 38°02' E 023°31'0 0.0
2017-Aug-13 19:30N 38°02' E 023°31'0 0.0
2017-Aug-13 19:00N 38°02' E 023°31'0 0.0
2017-Aug-13 18:30N 38°02' E 023°31'0 0.0
2017-Aug-13 18:00N 38°02' E 023°31'0 0.0
2017-Aug-13 17:30N 38°02' E 023°31'0 0.0
2017-Aug-13 17:00N 38°02' E 023°31'0 0.0
2017-Aug-13 16:29N 38°02' E 023°31'1 1.6
2017-Aug-13 16:00N 38°02' E 023°31'0 0.1
2017-Aug-13 15:30N 38°02' E 023°31'3 6.0
2017-Aug-13 15:00N 37°59' E 023°33'4 7.1
2017-Aug-13 14:30N 37°56' E 023°35'1 3.0
2017-Aug-13 14:00N 37°54' E 023°34'0 0.0
2017-Aug-13 13:31N 37°54' E 023°34'0 0.0
2017-Aug-13 13:00N 37°54' E 023°34'0 0.0
2017-Aug-13 12:30N 37°54' E 023°34'0 0.8
2017-Aug-13 11:59N 37°55' E 023°34'3 6.5
2017-Aug-13 11:30N 37°57' E 023°36'0 0.2
2017-Aug-13 11:00N 37°58' E 023°36'0 0.1
2017-Aug-13 10:30N 37°58' E 023°36'0 0.0
2017-Aug-13 10:00N 37°58' E 023°36'0 0.0
2017-Aug-13 09:30N 37°58' E 023°36'0 0.0
2017-Aug-13 09:00N 37°58' E 023°36'0 0.0
2017-Aug-13 08:30N 37°58' E 023°36'1 2.4
2017-Aug-13 08:01N 37°57' E 023°35'0 1.0
2017-Aug-13 07:30N 37°57' E 023°34'0 0.0
2017-Aug-13 07:00N 37°57' E 023°34'0 0.0
2017-Aug-13 06:30N 37°57' E 023°34'0 0.1
2017-Aug-13 06:00N 37°57' E 023°34'0 0.0
2017-Aug-13 05:30N 37°57' E 023°34'0 0.3
2017-Aug-13 05:00N 37°57' E 023°34'1 3.0
2017-Aug-13 04:30N 37°58' E 023°33'4 7.3
2017-Aug-13 04:00N 38°02' E 023°32'1 1.4
2017-Aug-13 03:30N 38°02' E 023°32'0 0.0
2017-Aug-13 03:00N 38°02' E 023°32'0 0.0
2017-Aug-13 02:30N 38°02' E 023°32'0 0.0
2017-Aug-12 16:34N 38°02' E 023°32'0 0.1
2017-Aug-12 16:30N 38°02' E 023°32'0 0.1
2017-Aug-12 16:00N 38°02' E 023°32'4 7.5
2017-Aug-12 15:30N 37°59' E 023°33'4 8.3
2017-Aug-12 15:00N 37°56' E 023°37'1 1.2
2017-Aug-12 14:30N 37°56' E 023°38'0 0.0
2017-Aug-12 14:00N 37°56' E 023°38'0 0.0
2017-Aug-12 13:30N 37°56' E 023°38'0 0.0
2017-Aug-12 13:00N 37°56' E 023°38'0 0.0
2017-Aug-12 12:30N 37°56' E 023°38'0 0.0
2017-Aug-12 12:01N 37°56' E 023°38'0 0.0
2017-Aug-12 11:30N 37°56' E 023°38'0 0.0
2017-Aug-12 11:00N 37°56' E 023°38'0 0.0
2017-Aug-12 10:30N 37°56' E 023°38'0 0.0
2017-Aug-12 10:00N 37°56' E 023°38'0 0.0
2017-Aug-12 09:29N 37°56' E 023°38'0 0.0
2017-Aug-12 08:59N 37°56' E 023°38'1 1.1
2017-Aug-12 08:30N 37°56' E 023°37'4 7.1
2017-Aug-12 08:00N 37°58' E 023°33'4 8.8
2017-Aug-12 07:30N 38°02' E 023°32'1 1.0
2017-Aug-12 07:00N 38°02' E 023°32'0 0.0
2017-Aug-12 06:30N 38°02' E 023°32'0 0.0
2017-Aug-12 06:00N 38°02' E 023°32'0 0.0
2017-Aug-12 05:29N 38°02' E 023°32'0 0.0
2017-Aug-12 05:00N 38°02' E 023°32'0 0.0
2017-Aug-12 04:29N 38°02' E 023°32'0 0.0
2017-Aug-12 04:00N 38°02' E 023°32'0 0.0
2017-Aug-12 03:30N 38°02' E 023°32'0 0.0
2017-Aug-12 02:59N 38°02' E 023°32'0 0.0
2017-Aug-11 12:36N 38°02' E 023°32'0 0.1
2017-Aug-11 12:30N 38°02' E 023°32'0 0.0
2017-Aug-11 12:01N 38°02' E 023°32'0 0.0
2017-Aug-11 11:29N 38°02' E 023°32'0 0.0
2017-Aug-11 11:00N 38°02' E 023°32'0 0.1
2017-Aug-11 10:31N 38°02' E 023°32'0 0.1
2017-Aug-11 10:00N 38°02' E 023°32'0 0.0
2017-Aug-11 09:30N 38°02' E 023°32'0 0.0
2017-Aug-11 09:00N 38°02' E 023°32'0 0.0
2017-Aug-11 08:30N 38°02' E 023°32'0 0.0
2017-Aug-11 08:01N 38°02' E 023°32'0 0.0
2017-Aug-11 07:31N 38°02' E 023°32'0 0.0
2017-Aug-11 07:00N 38°02' E 023°32'0 0.0
2017-Aug-11 06:30N 38°02' E 023°32'0 0.0
2017-Aug-11 06:00N 38°02' E 023°32'0 0.0
2017-Aug-11 05:31N 38°02' E 023°32'0 0.0
2017-Aug-11 05:00N 38°02' E 023°32'0 0.0
2017-Aug-11 04:30N 38°02' E 023°32'0 0.0
2017-Aug-10 13:29N 38°02' E 023°32'0 0.1
2017-Aug-10 13:00N 38°02' E 023°32'3 5.1
2017-Aug-10 12:30N 38°02' E 023°35'0 0.7
2017-Aug-10 12:00N 38°02' E 023°36'0 0.0
2017-Aug-10 11:31N 38°02' E 023°36'0 0.0
2017-Aug-10 11:00N 38°02' E 023°36'0 0.0
2017-Aug-10 10:30N 38°02' E 023°36'0 0.0
2017-Aug-10 10:01N 38°02' E 023°36'0 0.0
2017-Aug-10 09:30N 38°02' E 023°36'0 0.0
2017-Aug-10 09:01N 38°02' E 023°36'0 0.0
2017-Aug-10 08:30N 38°02' E 023°36'0 0.0
2017-Aug-10 08:00N 38°02' E 023°36'0 0.0
2017-Aug-10 07:30N 38°02' E 023°36'1 1.1
2017-Aug-10 07:00N 38°02' E 023°35'0 0.0
2017-Aug-10 06:30N 38°02' E 023°35'0 0.0
2017-Aug-10 06:00N 38°02' E 023°35'0 0.0
2017-Aug-10 05:30N 38°02' E 023°35'0 0.0
2017-Aug-10 05:00N 38°02' E 023°35'0 0.1
2017-Aug-10 04:30N 38°02' E 023°35'0 0.0
2017-Aug-10 04:00N 38°02' E 023°35'0 0.5
2017-Aug-10 03:30N 38°02' E 023°35'2 4.5
2017-Aug-10 03:00N 38°02' E 023°32'0 0.0
2017-Aug-10 02:31N 38°02' E 023°32'0 0.0
2017-Aug-09 16:40N 38°02' E 023°32'0 0.0
2017-Aug-09 16:30N 38°02' E 023°32'0 0.0
2017-Aug-09 15:59N 38°02' E 023°32'0 0.0
2017-Aug-09 15:30N 38°02' E 023°32'1 2.5
2017-Aug-09 15:00N 38°01' E 023°33'0 0.1
2017-Aug-09 14:30N 38°01' E 023°33'0 0.1
2017-Aug-09 14:00N 38°01' E 023°33'0 0.0
2017-Aug-09 13:30N 38°01' E 023°33'0 0.1
2017-Aug-09 13:00N 38°01' E 023°33'0 0.0
2017-Aug-09 12:30N 38°01' E 023°33'0 0.0
2017-Aug-09 12:00N 38°01' E 023°33'0 0.6
2017-Aug-09 11:31N 38°01' E 023°33'2 3.1
2017-Aug-09 11:00N 38°02' E 023°32'0 0.0
2017-Aug-09 10:30N 38°02' E 023°32'0 0.0
2017-Aug-09 09:59N 38°02' E 023°32'0 0.0
2017-Aug-09 09:29N 38°02' E 023°32'0 0.0
2017-Aug-09 09:00N 38°02' E 023°32'0 0.0
2017-Aug-09 08:31N 38°02' E 023°32'0 0.0
2017-Aug-09 08:00N 38°02' E 023°32'0 0.0
2017-Aug-09 07:30N 38°02' E 023°32'0 0.0
2017-Aug-09 07:01N 38°02' E 023°32'0 0.0
2017-Aug-09 06:29N 38°02' E 023°32'0 0.0
2017-Aug-09 06:00N 38°02' E 023°32'0 0.0
2017-Aug-09 05:30N 38°02' E 023°32'0 0.0
2017-Aug-09 05:00N 38°02' E 023°32'0 0.0
2017-Aug-08 17:02N 38°02' E 023°32'0 0.0
2017-Aug-08 17:00N 38°02' E 023°32'0 0.4
2017-Aug-08 16:30N 38°02' E 023°32'3 5.6
2017-Aug-08 16:00N 38°02' E 023°36'0 0.1
2017-Aug-08 15:30N 38°02' E 023°36'0 0.0
2017-Aug-08 15:00N 38°02' E 023°36'0 0.0
2017-Aug-08 14:30N 38°02' E 023°36'0 0.0
2017-Aug-08 14:00N 38°02' E 023°36'0 0.0
2017-Aug-08 13:30N 38°02' E 023°36'2 3.9
2017-Aug-08 13:01N 38°01' E 023°34'3 6.7
2017-Aug-08 12:31N 37°57' E 023°34'3 5.1
2017-Aug-08 12:00N 37°56' E 023°37'1 1.1
2017-Aug-08 11:30N 37°56' E 023°38'0 0.0
2017-Aug-08 11:00N 37°56' E 023°38'0 0.0
2017-Aug-08 10:30N 37°56' E 023°38'0 0.0
2017-Aug-08 10:00N 37°56' E 023°38'0 0.0
2017-Aug-08 09:29N 37°56' E 023°38'1 1.4
2017-Aug-08 09:01N 37°56' E 023°37'2 3.1
2017-Aug-08 08:30N 37°57' E 023°35'4 8.3
2017-Aug-08 08:00N 38°00' E 023°33'2 3.7
2017-Aug-08 07:30N 38°02' E 023°32'0 0.0
2017-Aug-08 07:01N 38°02' E 023°32'0 0.0
2017-Aug-08 06:30N 38°02' E 023°32'0 0.0
2017-Aug-08 06:00N 38°02' E 023°32'0 0.0
2017-Aug-08 05:30N 38°02' E 023°32'0 0.0
2017-Aug-08 05:00N 38°02' E 023°32'0 0.0
2017-Aug-07 15:15N 38°02' E 023°32'0 0.0
2017-Aug-07 15:01N 38°02' E 023°32'0 0.0
2017-Aug-07 14:30N 38°02' E 023°32'0 0.0
2017-Aug-07 14:00N 38°02' E 023°32'2 3.3
2017-Aug-07 13:30N 38°01' E 023°32'4 7.9
2017-Aug-07 13:00N 37°57' E 023°35'0 0.7
2017-Aug-07 12:30N 37°57' E 023°35'0 0.0
2017-Aug-07 12:01N 37°57' E 023°35'0 0.0
2017-Aug-07 11:30N 37°57' E 023°35'0 0.0
2017-Aug-07 11:00N 37°57' E 023°35'0 0.0
2017-Aug-07 10:30N 37°57' E 023°35'0 0.0
2017-Aug-07 10:00N 37°57' E 023°35'0 0.0
2017-Aug-07 09:30N 37°57' E 023°35'0 0.0
2017-Aug-07 09:00N 37°57' E 023°35'0 0.0
2017-Aug-07 08:30N 37°57' E 023°35'0 0.0
2017-Aug-07 08:00N 37°57' E 023°35'1 1.0
2017-Aug-07 07:31N 37°57' E 023°36'2 2.9
2017-Aug-07 06:48N 37°56' E 023°38'0 0.0
2017-Aug-07 06:30N 37°56' E 023°38'  

Dump ship's entire track history